Chahbahar, Iran
Current Conditions -  °F | °C
As of 12:00 AM on Monday 26 Jan 2015 (Local Time) from OIZI Reporting Station
Clear Clear  
Wind Chill: 46°   Ceiling: Unl
Heat Index: 48°   Visibility: 6mi
Dew Point: 36°   Wind: 5mph
Humidity: 62%   Direction: 10°N
Pressure: 30.24"   Gusts: NA
Location:  25.28°N, 60.62°E
Report Text: OIZI 252100Z 01004KT CAVOK 09/02 Q1024
Loading
Personal Weather Stations






























Interactive Weather Map New forecast layout! Learn more

10-Day Weather Forecast

Advertisements
Track Severe Weather on mobile